sensor_id;sensor_type;location;lat;lon;timestamp;temperature;humidity
18426;DHT22;9340;48.756;9.226;2022-11-24T00:01:14;4.50;99.90
18426;DHT22;9340;48.756;9.226;2022-11-24T00:03:42;4.40;99.90
18426;DHT22;9340;48.756;9.226;2022-11-24T00:06:11;4.30;99.90
18426;DHT22;9340;48.756;9.226;2022-11-24T00:08:39;4.30;99.90
18426;DHT22;9340;48.756;9.226;2022-11-24T00:11:08;4.40;99.90
18426;DHT22;9340;48.756;9.226;2022-11-24T00:13:37;4.50;99.90
18426;DHT22;9340;48.756;9.226;2022-11-24T00:16:08;4.60;99.90
18426;DHT22;9340;48.756;9.226;2022-11-24T00:18:35;4.60;99.90
18426;DHT22;9340;48.756;9.226;2022-11-24T00:21:03;4.70;99.90
18426;DHT22;9340;48.756;9.226;2022-11-24T00:23:30;4.90;99.90
18426;DHT22;9340;48.756;9.226;2022-11-24T00:26:03;5.00;99.90
18426;DHT22;9340;48.756;9.226;2022-11-24T00:28:31;5.20;99.90
18426;DHT22;9340;48.756;9.226;2022-11-24T00:30:59;5.40;99.90
18426;DHT22;9340;48.756;9.226;2022-11-24T00:33:26;5.50;99.90
18426;DHT22;9340;48.756;9.226;2022-11-24T00:35:54;5.60;99.90
18426;DHT22;9340;48.756;9.226;2022-11-24T00:38:21;5.60;99.90
18426;DHT22;9340;48.756;9.226;2022-11-24T00:40:48;5.80;99.90
18426;DHT22;9340;48.756;9.226;2022-11-24T00:43:14;5.80;99.90
18426;DHT22;9340;48.756;9.226;2022-11-24T00:45:41;5.90;99.90
18426;DHT22;9340;48.756;9.226;2022-11-24T00:48:09;6.00;99.90
18426;DHT22;9340;48.756;9.226;2022-11-24T00:50:36;6.10;99.90
18426;DHT22;9340;48.756;9.226;2022-11-24T00:53:03;6.10;99.90
18426;DHT22;9340;48.756;9.226;2022-11-24T00:55:29;6.10;99.90
18426;DHT22;9340;48.756;9.226;2022-11-24T00:57:56;6.10;99.90
18426;DHT22;9340;48.756;9.226;2022-11-24T01:00:23;6.10;99.90
18426;DHT22;9340;48.756;9.226;2022-11-24T01:02:51;6.00;99.90
18426;DHT22;9340;48.756;9.226;2022-11-24T01:05:19;5.90;99.90
18426;DHT22;9340;48.756;9.226;2022-11-24T01:07:46;5.80;99.90
18426;DHT22;9340;48.756;9.226;2022-11-24T01:10:13;5.80;99.90
18426;DHT22;9340;48.756;9.226;2022-11-24T01:12:39;5.60;99.90
18426;DHT22;9340;48.756;9.226;2022-11-24T01:15:07;5.50;99.90
18426;DHT22;9340;48.756;9.226;2022-11-24T01:17:35;5.50;99.90
18426;DHT22;9340;48.756;9.226;2022-11-24T01:20:01;5.40;99.90
18426;DHT22;9340;48.756;9.226;2022-11-24T01:22:30;5.30;99.90
18426;DHT22;9340;48.756;9.226;2022-11-24T01:24:57;5.40;99.90
18426;DHT22;9340;48.756;9.226;2022-11-24T01:27:24;5.30;99.90
18426;DHT22;9340;48.756;9.226;2022-11-24T01:29:50;5.30;99.90
18426;DHT22;9340;48.756;9.226;2022-11-24T01:32:17;5.20;99.90
18426;DHT22;9340;48.756;9.226;2022-11-24T01:34:44;5.10;99.90
18426;DHT22;9340;48.756;9.226;2022-11-24T01:37:11;5.10;99.90
18426;DHT22;9340;48.756;9.226;2022-11-24T01:39:39;5.00;99.90
18426;DHT22;9340;48.756;9.226;2022-11-24T01:42:06;5.00;99.90
18426;DHT22;9340;48.756;9.226;2022-11-24T01:44:33;5.00;99.90
18426;DHT22;9340;48.756;9.226;2022-11-24T01:47:03;5.10;99.90
18426;DHT22;9340;48.756;9.226;2022-11-24T01:49:36;5.00;99.90
18426;DHT22;9340;48.756;9.226;2022-11-24T01:52:08;5.20;99.90
18426;DHT22;9340;48.756;9.226;2022-11-24T01:54:40;5.30;99.90
18426;DHT22;9340;48.756;9.226;2022-11-24T01:57:11;5.50;99.90
18426;DHT22;9340;48.756;9.226;2022-11-24T01:59:42;5.50;99.90
18426;DHT22;9340;48.756;9.226;2022-11-24T02:02:10;5.60;99.90
18426;DHT22;9340;48.756;9.226;2022-11-24T02:04:37;5.70;99.90
18426;DHT22;9340;48.756;9.226;2022-11-24T02:07:05;5.80;99.90
18426;DHT22;9340;48.756;9.226;2022-11-24T02:09:36;5.90;99.90
18426;DHT22;9340;48.756;9.226;2022-11-24T02:12:07;5.90;99.90
18426;DHT22;9340;48.756;9.226;2022-11-24T02:14:36;6.00;99.90
18426;DHT22;9340;48.756;9.226;2022-11-24T02:17:03;6.00;99.90
18426;DHT22;9340;48.756;9.226;2022-11-24T02:19:38;6.00;99.90
18426;DHT22;9340;48.756;9.226;2022-11-24T02:22:11;6.00;99.90
18426;DHT22;9340;48.756;9.226;2022-11-24T02:24:45;6.10;99.90
18426;DHT22;9340;48.756;9.226;2022-11-24T02:27:15;6.10;99.90
18426;DHT22;9340;48.756;9.226;2022-11-24T02:29:42;6.00;99.90
18426;DHT22;9340;48.756;9.226;2022-11-24T02:32:10;6.00;99.90
18426;DHT22;9340;48.756;9.226;2022-11-24T02:34:37;5.90;99.90
18426;DHT22;9340;48.756;9.226;2022-11-24T02:37:04;5.80;99.90
18426;DHT22;9340;48.756;9.226;2022-11-24T02:39:31;5.70;99.90
18426;DHT22;9340;48.756;9.226;2022-11-24T02:41:59;5.60;99.90
18426;DHT22;9340;48.756;9.226;2022-11-24T02:44:33;5.50;99.90
18426;DHT22;9340;48.756;9.226;2022-11-24T02:47:03;5.40;99.90
18426;DHT22;9340;48.756;9.226;2022-11-24T02:49:30;5.30;99.90
18426;DHT22;9340;48.756;9.226;2022-11-24T02:51:57;5.30;99.90
18426;DHT22;9340;48.756;9.226;2022-11-24T02:54:24;5.30;99.90
18426;DHT22;9340;48.756;9.226;2022-11-24T02:56:51;5.20;99.90
18426;DHT22;9340;48.756;9.226;2022-11-24T02:59:18;5.20;99.90
18426;DHT22;9340;48.756;9.226;2022-11-24T03:01:46;5.10;99.90
18426;DHT22;9340;48.756;9.226;2022-11-24T03:04:13;5.00;99.90
18426;DHT22;9340;48.756;9.226;2022-11-24T03:06:40;4.90;99.90
18426;DHT22;9340;48.756;9.226;2022-11-24T03:09:08;4.90;99.90
18426;DHT22;9340;48.756;9.226;2022-11-24T03:11:35;4.80;99.90
18426;DHT22;9340;48.756;9.226;2022-11-24T03:14:01;4.80;99.90
18426;DHT22;9340;48.756;9.226;2022-11-24T03:16:28;4.70;99.90
18426;DHT22;9340;48.756;9.226;2022-11-24T03:18:56;4.70;99.90
18426;DHT22;9340;48.756;9.226;2022-11-24T03:21:24;4.90;99.90
18426;DHT22;9340;48.756;9.226;2022-11-24T03:23:52;4.80;99.90
18426;DHT22;9340;48.756;9.226;2022-11-24T03:26:21;4.80;99.90
18426;DHT22;9340;48.756;9.226;2022-11-24T03:28:48;4.80;99.90
18426;DHT22;9340;48.756;9.226;2022-11-24T03:31:15;4.70;99.90
18426;DHT22;9340;48.756;9.226;2022-11-24T03:33:42;4.70;99.90
18426;DHT22;9340;48.756;9.226;2022-11-24T03:36:10;4.70;99.90
18426;DHT22;9340;48.756;9.226;2022-11-24T03:38:37;4.60;99.90
18426;DHT22;9340;48.756;9.226;2022-11-24T03:41:04;4.60;99.90
18426;DHT22;9340;48.756;9.226;2022-11-24T03:43:31;4.60;99.90
18426;DHT22;9340;48.756;9.226;2022-11-24T03:45:57;4.60;99.90
18426;DHT22;9340;48.756;9.226;2022-11-24T03:48:24;4.50;99.90
18426;DHT22;9340;48.756;9.226;2022-11-24T03:50:52;4.60;99.90
18426;DHT22;9340;48.756;9.226;2022-11-24T03:53:23;4.60;99.90
18426;DHT22;9340;48.756;9.226;2022-11-24T03:55:50;4.40;99.90
18426;DHT22;9340;48.756;9.226;2022-11-24T03:58:16;4.50;99.90
18426;DHT22;9340;48.756;9.226;2022-11-24T04:00:44;4.40;99.90
18426;DHT22;9340;48.756;9.226;2022-11-24T04:03:10;4.40;99.90
18426;DHT22;9340;48.756;9.226;2022-11-24T04:05:37;4.50;99.90
18426;DHT22;9340;48.756;9.226;2022-11-24T04:08:04;4.40;99.90
18426;DHT22;9340;48.756;9.226;2022-11-24T04:10:34;4.30;99.90
18426;DHT22;9340;48.756;9.226;2022-11-24T04:13:01;4.20;99.90
18426;DHT22;9340;48.756;9.226;2022-11-24T04:15:27;4.10;99.90
18426;DHT22;9340;48.756;9.226;2022-11-24T04:17:54;4.20;99.90
18426;DHT22;9340;48.756;9.226;2022-11-24T04:20:21;4.10;99.90
18426;DHT22;9340;48.756;9.226;2022-11-24T04:22:49;4.00;99.90
18426;DHT22;9340;48.756;9.226;2022-11-24T04:25:16;4.00;99.90
18426;DHT22;9340;48.756;9.226;2022-11-24T04:27:48;4.00;99.90
18426;DHT22;9340;48.756;9.226;2022-11-24T04:30:16;3.90;99.90
18426;DHT22;9340;48.756;9.226;2022-11-24T04:32:43;3.90;99.90
18426;DHT22;9340;48.756;9.226;2022-11-24T04:35:09;3.90;99.90
18426;DHT22;9340;48.756;9.226;2022-11-24T04:37:36;4.00;99.90
18426;DHT22;9340;48.756;9.226;2022-11-24T04:40:04;4.00;99.90
18426;DHT22;9340;48.756;9.226;2022-11-24T04:42:31;4.00;99.90
18426;DHT22;9340;48.756;9.226;2022-11-24T04:44:59;4.10;99.90
18426;DHT22;9340;48.756;9.226;2022-11-24T04:47:26;4.10;99.90
18426;DHT22;9340;48.756;9.226;2022-11-24T04:49:53;4.10;99.90
18426;DHT22;9340;48.756;9.226;2022-11-24T04:52:22;4.00;99.90
18426;DHT22;9340;48.756;9.226;2022-11-24T04:54:50;4.10;99.90
18426;DHT22;9340;48.756;9.226;2022-11-24T04:57:18;4.10;99.90
18426;DHT22;9340;48.756;9.226;2022-11-24T04:59:45;4.20;99.90
18426;DHT22;9340;48.756;9.226;2022-11-24T05:02:13;4.10;99.90
18426;DHT22;9340;48.756;9.226;2022-11-24T05:04:40;3.90;99.90
18426;DHT22;9340;48.756;9.226;2022-11-24T05:07:09;3.70;99.90
18426;DHT22;9340;48.756;9.226;2022-11-24T05:09:36;3.70;99.90
18426;DHT22;9340;48.756;9.226;2022-11-24T05:12:23;3.70;99.90
18426;DHT22;9340;48.756;9.226;2022-11-24T05:14:50;3.80;99.90
18426;DHT22;9340;48.756;9.226;2022-11-24T05:17:18;3.80;99.90
18426;DHT22;9340;48.756;9.226;2022-11-24T05:19:45;3.90;99.90
18426;DHT22;9340;48.756;9.226;2022-11-24T05:22:12;3.90;99.90
18426;DHT22;9340;48.756;9.226;2022-11-24T05:24:39;3.90;99.90
18426;DHT22;9340;48.756;9.226;2022-11-24T05:27:05;4.00;99.90
18426;DHT22;9340;48.756;9.226;2022-11-24T05:29:32;4.10;99.90
18426;DHT22;9340;48.756;9.226;2022-11-24T05:31:59;4.10;99.90
18426;DHT22;9340;48.756;9.226;2022-11-24T05:34:27;4.00;99.90
18426;DHT22;9340;48.756;9.226;2022-11-24T05:36:57;4.00;99.90
18426;DHT22;9340;48.756;9.226;2022-11-24T05:39:27;4.00;99.90
18426;DHT22;9340;48.756;9.226;2022-11-24T05:41:54;4.00;99.90
18426;DHT22;9340;48.756;9.226;2022-11-24T05:44:21;3.90;99.90
18426;DHT22;9340;48.756;9.226;2022-11-24T05:46:48;4.00;99.90
18426;DHT22;9340;48.756;9.226;2022-11-24T05:49:15;3.90;99.90
18426;DHT22;9340;48.756;9.226;2022-11-24T05:51:43;4.00;99.90
18426;DHT22;9340;48.756;9.226;2022-11-24T05:54:09;4.00;99.90
18426;DHT22;9340;48.756;9.226;2022-11-24T05:56:37;4.00;99.90
18426;DHT22;9340;48.756;9.226;2022-11-24T05:59:04;4.00;99.90
18426;DHT22;9340;48.756;9.226;2022-11-24T06:01:31;4.10;99.90
18426;DHT22;9340;48.756;9.226;2022-11-24T06:03:57;4.00;99.90
18426;DHT22;9340;48.756;9.226;2022-11-24T06:06:24;4.10;99.90
18426;DHT22;9340;48.756;9.226;2022-11-24T06:08:52;4.20;99.90
18426;DHT22;9340;48.756;9.226;2022-11-24T06:11:19;4.30;99.90
18426;DHT22;9340;48.756;9.226;2022-11-24T06:13:47;4.30;99.90
18426;DHT22;9340;48.756;9.226;2022-11-24T06:16:13;4.40;99.90
18426;DHT22;9340;48.756;9.226;2022-11-24T06:18:40;4.50;99.90
18426;DHT22;9340;48.756;9.226;2022-11-24T06:21:07;4.50;99.90
18426;DHT22;9340;48.756;9.226;2022-11-24T06:23:34;4.50;99.90
18426;DHT22;9340;48.756;9.226;2022-11-24T06:26:02;4.60;99.90
18426;DHT22;9340;48.756;9.226;2022-11-24T06:28:29;4.60;99.90
18426;DHT22;9340;48.756;9.226;2022-11-24T06:31:00;4.60;99.90
18426;DHT22;9340;48.756;9.226;2022-11-24T06:33:29;4.60;99.90
18426;DHT22;9340;48.756;9.226;2022-11-24T06:35:59;4.60;99.90
18426;DHT22;9340;48.756;9.226;2022-11-24T06:38:27;4.80;99.90
18426;DHT22;9340;48.756;9.226;2022-11-24T06:40:58;4.90;99.90
18426;DHT22;9340;48.756;9.226;2022-11-24T06:43:27;4.80;99.90
18426;DHT22;9340;48.756;9.226;2022-11-24T06:45:55;4.90;99.90
18426;DHT22;9340;48.756;9.226;2022-11-24T06:48:21;4.90;99.90
18426;DHT22;9340;48.756;9.226;2022-11-24T06:50:48;5.10;99.90
18426;DHT22;9340;48.756;9.226;2022-11-24T06:53:15;5.10;99.90
18426;DHT22;9340;48.756;9.226;2022-11-24T06:55:43;5.20;99.90
18426;DHT22;9340;48.756;9.226;2022-11-24T06:58:10;5.20;99.90
18426;DHT22;9340;48.756;9.226;2022-11-24T07:00:39;5.30;99.90
18426;DHT22;9340;48.756;9.226;2022-11-24T07:03:05;5.30;99.90
18426;DHT22;9340;48.756;9.226;2022-11-24T07:05:32;5.40;99.90
18426;DHT22;9340;48.756;9.226;2022-11-24T07:07:59;5.50;99.90
18426;DHT22;9340;48.756;9.226;2022-11-24T07:10:25;5.60;99.90
18426;DHT22;9340;48.756;9.226;2022-11-24T07:12:52;5.70;99.90
18426;DHT22;9340;48.756;9.226;2022-11-24T07:15:19;5.80;99.90
18426;DHT22;9340;48.756;9.226;2022-11-24T07:17:47;6.10;99.90
18426;DHT22;9340;48.756;9.226;2022-11-24T07:20:14;6.10;99.90
18426;DHT22;9340;48.756;9.226;2022-11-24T07:22:41;6.10;99.90
18426;DHT22;9340;48.756;9.226;2022-11-24T07:25:08;6.10;99.90
18426;DHT22;9340;48.756;9.226;2022-11-24T07:27:35;6.10;99.90
18426;DHT22;9340;48.756;9.226;2022-11-24T07:30:02;6.20;99.90
18426;DHT22;9340;48.756;9.226;2022-11-24T07:32:29;6.20;99.90
18426;DHT22;9340;48.756;9.226;2022-11-24T07:34:57;6.20;99.90
18426;DHT22;9340;48.756;9.226;2022-11-24T07:37:24;6.30;99.90
18426;DHT22;9340;48.756;9.226;2022-11-24T07:39:50;6.40;99.90
18426;DHT22;9340;48.756;9.226;2022-11-24T07:42:17;6.40;99.90
18426;DHT22;9340;48.756;9.226;2022-11-24T07:44:44;6.40;99.90
18426;DHT22;9340;48.756;9.226;2022-11-24T07:47:11;6.50;99.90
18426;DHT22;9340;48.756;9.226;2022-11-24T07:49:38;6.50;99.90
18426;DHT22;9340;48.756;9.226;2022-11-24T07:52:07;6.60;99.90
18426;DHT22;9340;48.756;9.226;2022-11-24T07:54:34;6.70;99.90
18426;DHT22;9340;48.756;9.226;2022-11-24T07:57:01;6.70;99.90
18426;DHT22;9340;48.756;9.226;2022-11-24T07:59:28;6.80;99.90
18426;DHT22;9340;48.756;9.226;2022-11-24T08:01:54;6.90;99.90
18426;DHT22;9340;48.756;9.226;2022-11-24T08:04:21;6.90;99.90
18426;DHT22;9340;48.756;9.226;2022-11-24T08:06:48;6.90;99.90
18426;DHT22;9340;48.756;9.226;2022-11-24T08:09:16;6.90;99.90
18426;DHT22;9340;48.756;9.226;2022-11-24T08:11:43;6.90;99.90
18426;DHT22;9340;48.756;9.226;2022-11-24T08:14:09;6.90;99.90
18426;DHT22;9340;48.756;9.226;2022-11-24T08:16:36;7.00;99.90
18426;DHT22;9340;48.756;9.226;2022-11-24T08:19:04;7.00;99.90
18426;DHT22;9340;48.756;9.226;2022-11-24T08:21:31;7.10;99.90
18426;DHT22;9340;48.756;9.226;2022-11-24T08:23:58;7.10;99.90
18426;DHT22;9340;48.756;9.226;2022-11-24T08:26:26;7.10;99.90
18426;DHT22;9340;48.756;9.226;2022-11-24T08:28:55;7.20;99.90
18426;DHT22;9340;48.756;9.226;2022-11-24T08:31:23;7.20;99.90
18426;DHT22;9340;48.756;9.226;2022-11-24T08:33:53;7.30;99.90
18426;DHT22;9340;48.756;9.226;2022-11-24T08:36:21;7.40;99.90
18426;DHT22;9340;48.756;9.226;2022-11-24T08:38:53;7.50;99.90
18426;DHT22;9340;48.756;9.226;2022-11-24T08:41:20;7.50;99.90
18426;DHT22;9340;48.756;9.226;2022-11-24T08:43:48;7.50;99.90
18426;DHT22;9340;48.756;9.226;2022-11-24T08:46:16;7.50;99.90
18426;DHT22;9340;48.756;9.226;2022-11-24T08:48:45;7.50;99.90
18426;DHT22;9340;48.756;9.226;2022-11-24T08:51:15;7.60;99.90
18426;DHT22;9340;48.756;9.226;2022-11-24T08:53:42;7.50;99.90
18426;DHT22;9340;48.756;9.226;2022-11-24T08:56:10;7.60;99.90
18426;DHT22;9340;48.756;9.226;2022-11-24T08:58:37;7.70;99.90
18426;DHT22;9340;48.756;9.226;2022-11-24T09:01:08;7.80;99.90
18426;DHT22;9340;48.756;9.226;2022-11-24T09:03:36;7.80;99.90
18426;DHT22;9340;48.756;9.226;2022-11-24T09:06:04;7.80;99.90
18426;DHT22;9340;48.756;9.226;2022-11-24T09:08:32;7.90;99.90
18426;DHT22;9340;48.756;9.226;2022-11-24T09:10:59;7.80;99.90
18426;DHT22;9340;48.756;9.226;2022-11-24T09:13:26;7.90;99.90
18426;DHT22;9340;48.756;9.226;2022-11-24T09:15:53;8.10;99.90
18426;DHT22;9340;48.756;9.226;2022-11-24T09:18:22;8.10;99.90
18426;DHT22;9340;48.756;9.226;2022-11-24T09:20:49;8.20;99.90
18426;DHT22;9340;48.756;9.226;2022-11-24T09:23:16;8.30;99.90
18426;DHT22;9340;48.756;9.226;2022-11-24T09:25:42;8.50;99.90
18426;DHT22;9340;48.756;9.226;2022-11-24T09:28:09;8.60;99.90
18426;DHT22;9340;48.756;9.226;2022-11-24T09:30:36;8.70;99.90
18426;DHT22;9340;48.756;9.226;2022-11-24T09:33:02;8.80;99.90
18426;DHT22;9340;48.756;9.226;2022-11-24T09:35:30;8.80;99.90
18426;DHT22;9340;48.756;9.226;2022-11-24T09:37:57;8.80;99.90
18426;DHT22;9340;48.756;9.226;2022-11-24T09:40:24;8.80;99.90
18426;DHT22;9340;48.756;9.226;2022-11-24T09:42:57;8.70;99.90
18426;DHT22;9340;48.756;9.226;2022-11-24T09:45:32;8.70;99.90
18426;DHT22;9340;48.756;9.226;2022-11-24T09:48:07;8.50;99.90
18426;DHT22;9340;48.756;9.226;2022-11-24T09:50:37;8.60;99.90
18426;DHT22;9340;48.756;9.226;2022-11-24T09:53:09;8.60;99.90
18426;DHT22;9340;48.756;9.226;2022-11-24T09:55:39;8.60;99.90
18426;DHT22;9340;48.756;9.226;2022-11-24T09:58:30;8.60;99.90
18426;DHT22;9340;48.756;9.226;2022-11-24T10:00:59;8.70;99.90
18426;DHT22;9340;48.756;9.226;2022-11-24T10:03:31;8.80;99.90
18426;DHT22;9340;48.756;9.226;2022-11-24T10:06:02;9.00;99.90
18426;DHT22;9340;48.756;9.226;2022-11-24T10:08:59;9.10;99.90
18426;DHT22;9340;48.756;9.226;2022-11-24T10:11:33;9.10;99.90
18426;DHT22;9340;48.756;9.226;2022-11-24T10:14:20;9.20;99.90
18426;DHT22;9340;48.756;9.226;2022-11-24T10:16:53;9.30;99.90
18426;DHT22;9340;48.756;9.226;2022-11-24T10:19:33;9.40;99.90
18426;DHT22;9340;48.756;9.226;2022-11-24T10:22:20;9.50;99.90
18426;DHT22;9340;48.756;9.226;2022-11-24T10:25:06;9.70;99.90
18426;DHT22;9340;48.756;9.226;2022-11-24T10:27:38;9.80;99.90
18426;DHT22;9340;48.756;9.226;2022-11-24T10:30:13;9.90;99.90
18426;DHT22;9340;48.756;9.226;2022-11-24T10:32:44;10.10;99.90
18426;DHT22;9340;48.756;9.226;2022-11-24T10:35:15;10.10;99.90
18426;DHT22;9340;48.756;9.226;2022-11-24T10:37:54;10.10;99.90
18426;DHT22;9340;48.756;9.226;2022-11-24T10:40:35;10.00;99.90
18426;DHT22;9340;48.756;9.226;2022-11-24T10:43:02;10.00;99.90
18426;DHT22;9340;48.756;9.226;2022-11-24T10:45:35;10.10;99.90
18426;DHT22;9340;48.756;9.226;2022-11-24T10:48:06;10.10;99.90
18426;DHT22;9340;48.756;9.226;2022-11-24T10:50:35;10.00;99.90
18426;DHT22;9340;48.756;9.226;2022-11-24T10:53:13;9.90;99.90
18426;DHT22;9340;48.756;9.226;2022-11-24T10:56:02;10.00;99.90
18426;DHT22;9340;48.756;9.226;2022-11-24T10:58:31;9.90;99.90
18426;DHT22;9340;48.756;9.226;2022-11-24T11:00:59;9.70;99.90
18426;DHT22;9340;48.756;9.226;2022-11-24T11:03:29;9.80;99.90
18426;DHT22;9340;48.756;9.226;2022-11-24T11:06:00;9.80;99.90
18426;DHT22;9340;48.756;9.226;2022-11-24T11:08:30;9.90;99.90
18426;DHT22;9340;48.756;9.226;2022-11-24T11:11:19;10.10;99.90
18426;DHT22;9340;48.756;9.226;2022-11-24T11:13:54;10.20;99.90
18426;DHT22;9340;48.756;9.226;2022-11-24T11:16:28;10.20;99.90
18426;DHT22;9340;48.756;9.226;2022-11-24T11:18:56;10.20;99.90
18426;DHT22;9340;48.756;9.226;2022-11-24T11:21:34;10.30;99.90
18426;DHT22;9340;48.756;9.226;2022-11-24T11:24:04;10.40;99.90
18426;DHT22;9340;48.756;9.226;2022-11-24T11:26:36;10.40;99.90
18426;DHT22;9340;48.756;9.226;2022-11-24T11:29:14;10.30;99.90
18426;DHT22;9340;48.756;9.226;2022-11-24T11:31:41;10.30;99.90
18426;DHT22;9340;48.756;9.226;2022-11-24T11:34:21;10.50;99.90
18426;DHT22;9340;48.756;9.226;2022-11-24T11:36:50;10.60;99.90
18426;DHT22;9340;48.756;9.226;2022-11-24T11:39:23;10.60;99.90
18426;DHT22;9340;48.756;9.226;2022-11-24T11:41:57;10.50;99.90
18426;DHT22;9340;48.756;9.226;2022-11-24T11:44:32;10.50;99.90
18426;DHT22;9340;48.756;9.226;2022-11-24T11:47:08;10.50;99.90
18426;DHT22;9340;48.756;9.226;2022-11-24T11:49:37;10.60;99.90
18426;DHT22;9340;48.756;9.226;2022-11-24T11:55:29;10.60;99.90
18426;DHT22;9340;48.756;9.226;2022-11-24T11:58:12;10.40;99.90
18426;DHT22;9340;48.756;9.226;2022-11-24T12:00:45;10.10;99.90
18426;DHT22;9340;48.756;9.226;2022-11-24T12:03:29;9.90;99.90
18426;DHT22;9340;48.756;9.226;2022-11-24T12:06:07;9.70;99.90
18426;DHT22;9340;48.756;9.226;2022-11-24T12:08:45;9.60;99.90
18426;DHT22;9340;48.756;9.226;2022-11-24T12:11:19;9.40;99.90
18426;DHT22;9340;48.756;9.226;2022-11-24T12:14:00;9.30;99.90
18426;DHT22;9340;48.756;9.226;2022-11-24T12:16:37;9.20;99.90
18426;DHT22;9340;48.756;9.226;2022-11-24T12:19:30;9.30;99.90
18426;DHT22;9340;48.756;9.226;2022-11-24T12:22:06;9.50;99.90
18426;DHT22;9340;48.756;9.226;2022-11-24T12:24:41;9.70;99.90
18426;DHT22;9340;48.756;9.226;2022-11-24T12:27:19;10.00;99.90
18426;DHT22;9340;48.756;9.226;2022-11-24T12:29:58;10.30;99.90
18426;DHT22;9340;48.756;9.226;2022-11-24T12:32:45;10.60;99.90
18426;DHT22;9340;48.756;9.226;2022-11-24T12:35:20;10.80;99.90
18426;DHT22;9340;48.756;9.226;2022-11-24T12:37:56;10.90;99.90
18426;DHT22;9340;48.756;9.226;2022-11-24T12:40:36;11.10;99.90
18426;DHT22;9340;48.756;9.226;2022-11-24T12:43:12;11.20;99.90
18426;DHT22;9340;48.756;9.226;2022-11-24T12:45:49;11.20;99.90
18426;DHT22;9340;48.756;9.226;2022-11-24T12:48:32;11.40;99.90
18426;DHT22;9340;48.756;9.226;2022-11-24T12:51:03;11.50;99.90
18426;DHT22;9340;48.756;9.226;2022-11-24T12:53:32;11.50;99.90
18426;DHT22;9340;48.756;9.226;2022-11-24T12:56:05;11.50;99.90
18426;DHT22;9340;48.756;9.226;2022-11-24T12:58:40;11.60;99.90
18426;DHT22;9340;48.756;9.226;2022-11-24T13:01:13;11.60;99.90
18426;DHT22;9340;48.756;9.226;2022-11-24T13:03:53;11.70;99.90
18426;DHT22;9340;48.756;9.226;2022-11-24T13:06:26;11.70;99.90
18426;DHT22;9340;48.756;9.226;2022-11-24T13:08:54;11.50;99.90
18426;DHT22;9340;48.756;9.226;2022-11-24T13:11:36;11.40;99.90
18426;DHT22;9340;48.756;9.226;2022-11-24T13:14:10;11.50;99.90
18426;DHT22;9340;48.756;9.226;2022-11-24T13:16:48;11.50;99.90
18426;DHT22;9340;48.756;9.226;2022-11-24T13:19:18;11.30;99.90
18426;DHT22;9340;48.756;9.226;2022-11-24T13:22:00;11.10;99.90
18426;DHT22;9340;48.756;9.226;2022-11-24T13:24:29;10.90;99.90
18426;DHT22;9340;48.756;9.226;2022-11-24T13:27:39;10.80;99.90
18426;DHT22;9340;48.756;9.226;2022-11-24T13:33:32;10.70;99.90
18426;DHT22;9340;48.756;9.226;2022-11-24T13:36:30;10.70;99.90
18426;DHT22;9340;48.756;9.226;2022-11-24T13:38:58;10.60;99.90
18426;DHT22;9340;48.756;9.226;2022-11-24T13:44:49;10.60;99.90
18426;DHT22;9340;48.756;9.226;2022-11-24T13:47:50;10.70;99.90
18426;DHT22;9340;48.756;9.226;2022-11-24T13:50:23;10.90;99.90
18426;DHT22;9340;48.756;9.226;2022-11-24T13:53:17;11.00;99.90
18426;DHT22;9340;48.756;9.226;2022-11-24T13:55:55;11.00;99.90
18426;DHT22;9340;48.756;9.226;2022-11-24T13:58:29;10.90;99.90
18426;DHT22;9340;48.756;9.226;2022-11-24T14:01:03;10.80;99.90
18426;DHT22;9340;48.756;9.226;2022-11-24T14:03:33;10.70;99.90
18426;DHT22;9340;48.756;9.226;2022-11-24T14:06:01;10.60;99.90
18426;DHT22;9340;48.756;9.226;2022-11-24T14:08:32;10.40;99.90
18426;DHT22;9340;48.756;9.226;2022-11-24T14:11:01;10.30;99.90
18426;DHT22;9340;48.756;9.226;2022-11-24T14:13:30;10.20;99.90
18426;DHT22;9340;48.756;9.226;2022-11-24T14:16:02;10.00;99.90
18426;DHT22;9340;48.756;9.226;2022-11-24T14:18:30;9.80;99.90
18426;DHT22;9340;48.756;9.226;2022-11-24T14:20:58;9.70;99.90
18426;DHT22;9340;48.756;9.226;2022-11-24T14:23:26;9.50;99.90
18426;DHT22;9340;48.756;9.226;2022-11-24T14:25:54;9.40;99.90
18426;DHT22;9340;48.756;9.226;2022-11-24T14:28:23;9.40;99.90
18426;DHT22;9340;48.756;9.226;2022-11-24T14:30:50;9.30;99.90
18426;DHT22;9340;48.756;9.226;2022-11-24T14:33:18;9.20;99.90
18426;DHT22;9340;48.756;9.226;2022-11-24T14:35:46;9.10;99.90
18426;DHT22;9340;48.756;9.226;2022-11-24T14:38:15;9.00;99.90
18426;DHT22;9340;48.756;9.226;2022-11-24T14:40:43;8.90;99.90
18426;DHT22;9340;48.756;9.226;2022-11-24T14:43:25;8.80;99.90
18426;DHT22;9340;48.756;9.226;2022-11-24T14:45:54;8.70;99.90
18426;DHT22;9340;48.756;9.226;2022-11-24T14:48:25;8.70;99.90
18426;DHT22;9340;48.756;9.226;2022-11-24T14:51:03;8.60;99.90
18426;DHT22;9340;48.756;9.226;2022-11-24T14:53:31;8.60;99.90
18426;DHT22;9340;48.756;9.226;2022-11-24T14:56:12;8.50;99.90
18426;DHT22;9340;48.756;9.226;2022-11-24T14:58:48;8.40;99.90
18426;DHT22;9340;48.756;9.226;2022-11-24T15:01:27;8.40;99.90
18426;DHT22;9340;48.756;9.226;2022-11-24T15:04:11;8.60;99.90
18426;DHT22;9340;48.756;9.226;2022-11-24T15:06:38;8.70;99.90
18426;DHT22;9340;48.756;9.226;2022-11-24T15:09:16;8.80;99.90
18426;DHT22;9340;48.756;9.226;2022-11-24T15:11:44;8.80;99.90
18426;DHT22;9340;48.756;9.226;2022-11-24T15:14:28;8.90;99.90
18426;DHT22;9340;48.756;9.226;2022-11-24T15:16:57;8.90;99.90
18426;DHT22;9340;48.756;9.226;2022-11-24T15:19:27;8.70;99.90
18426;DHT22;9340;48.756;9.226;2022-11-24T15:21:56;8.80;99.90
18426;DHT22;9340;48.756;9.226;2022-11-24T15:24:23;8.80;99.90
18426;DHT22;9340;48.756;9.226;2022-11-24T15:26:57;8.60;99.90
18426;DHT22;9340;48.756;9.226;2022-11-24T15:29:25;8.50;99.90
18426;DHT22;9340;48.756;9.226;2022-11-24T15:31:52;8.40;99.90
18426;DHT22;9340;48.756;9.226;2022-11-24T15:34:19;8.30;99.90
18426;DHT22;9340;48.756;9.226;2022-11-24T15:36:45;8.30;99.90
18426;DHT22;9340;48.756;9.226;2022-11-24T15:39:12;8.30;99.90
18426;DHT22;9340;48.756;9.226;2022-11-24T15:41:39;8.20;99.90
18426;DHT22;9340;48.756;9.226;2022-11-24T15:44:07;8.10;99.90
18426;DHT22;9340;48.756;9.226;2022-11-24T15:46:35;8.10;99.90
18426;DHT22;9340;48.756;9.226;2022-11-24T15:49:04;8.00;99.90
18426;DHT22;9340;48.756;9.226;2022-11-24T15:51:31;7.90;99.90
18426;DHT22;9340;48.756;9.226;2022-11-24T15:53:57;7.80;99.90
18426;DHT22;9340;48.756;9.226;2022-11-24T15:56:28;7.60;99.90
18426;DHT22;9340;48.756;9.226;2022-11-24T15:58:56;7.50;99.90
18426;DHT22;9340;48.756;9.226;2022-11-24T16:01:24;7.40;99.90
18426;DHT22;9340;48.756;9.226;2022-11-24T16:03:54;7.30;99.90
18426;DHT22;9340;48.756;9.226;2022-11-24T16:06:20;7.10;99.90
18426;DHT22;9340;48.756;9.226;2022-11-24T16:08:47;7.00;99.90
18426;DHT22;9340;48.756;9.226;2022-11-24T16:11:14;6.90;99.90
18426;DHT22;9340;48.756;9.226;2022-11-24T16:13:41;6.70;99.90
18426;DHT22;9340;48.756;9.226;2022-11-24T16:16:08;6.50;99.90
18426;DHT22;9340;48.756;9.226;2022-11-24T16:18:36;6.50;99.90
18426;DHT22;9340;48.756;9.226;2022-11-24T16:21:06;6.50;99.90
18426;DHT22;9340;48.756;9.226;2022-11-24T16:23:34;6.50;99.90
18426;DHT22;9340;48.756;9.226;2022-11-24T16:26:01;6.40;99.90
18426;DHT22;9340;48.756;9.226;2022-11-24T16:28:28;6.30;99.90